KMWH/MWH METAR and TAF weather

Enter ICAO airport designator
Station Type Date Time Source
KMWH METAR 2019/10/23 12:52 UTC NOAA

KMWH 231252Z 36006KT 10SM CLR 03/M01 A3040 RMK AO2 SLP298 T00281011


Station Type Date Time Source
KMWH Decoded METAR 2019/10/23 12:52 UTC NOAA

GRANT COUNTY AIRPORT, WA, United States (KMWH) 47-12N 119-19W 362M
Oct 23, 2019 - 08:52 AM EDT / 2019.10.23 1252 UTC
Wind: from the N (360 degrees) at 7 MPH (6 KT):0
Visibility: 10 mile(s):0
Sky conditions: clear
Temperature: 37.0 F (2.8 C)
Dew Point: 30.0 F (-1.1 C)
Relative Humidity: 75%
Pressure (altimeter): 30.4 in. Hg (1029 hPa)
ob: KMWH 231252Z 36006KT 10SM CLR 03/M01 A3040 RMK AO2 SLP298 T00281011
cycle: 13

Station Type Date Time Source
KMWH TAF 2019/10/23 12:22 UTC NOAA

TAF KMWH 231120Z 2312/2412 32005KT P6SM FEW250
FM232300 VRB04KT P6SM FEW250

Example: see airport list